sensor_id;sensor_type;location;lat;lon;timestamp;temperature;humidity
59847;DHT22;45728;48.788;2.302;2023-09-12T00:02:20;22.30;99.90
59847;DHT22;45728;48.788;2.302;2023-09-12T00:04:46;22.30;99.90
59847;DHT22;45728;48.788;2.302;2023-09-12T00:07:12;22.30;99.90
59847;DHT22;45728;48.788;2.302;2023-09-12T00:09:38;22.30;99.90
59847;DHT22;45728;48.788;2.302;2023-09-12T00:12:04;22.20;99.90
59847;DHT22;45728;48.788;2.302;2023-09-12T00:14:30;22.20;99.90
59847;DHT22;45728;48.788;2.302;2023-09-12T00:16:56;22.30;99.90
59847;DHT22;45728;48.788;2.302;2023-09-12T00:19:22;22.20;99.90
59847;DHT22;45728;48.788;2.302;2023-09-12T00:21:48;22.10;99.90
59847;DHT22;45728;48.788;2.302;2023-09-12T00:24:14;22.00;99.90
59847;DHT22;45728;48.788;2.302;2023-09-12T00:26:41;22.00;99.90
59847;DHT22;45728;48.788;2.302;2023-09-12T00:29:07;22.00;99.90
59847;DHT22;45728;48.788;2.302;2023-09-12T00:31:33;21.90;99.90
59847;DHT22;45728;48.788;2.302;2023-09-12T00:33:59;21.80;99.90
59847;DHT22;45728;48.788;2.302;2023-09-12T00:36:25;21.80;99.90
59847;DHT22;45728;48.788;2.302;2023-09-12T00:38:51;21.70;99.90
59847;DHT22;45728;48.788;2.302;2023-09-12T00:41:17;21.80;99.90
59847;DHT22;45728;48.788;2.302;2023-09-12T00:43:43;21.70;99.90
59847;DHT22;45728;48.788;2.302;2023-09-12T00:46:09;21.70;99.90
59847;DHT22;45728;48.788;2.302;2023-09-12T00:48:36;21.70;99.90
59847;DHT22;45728;48.788;2.302;2023-09-12T00:51:04;21.60;99.90
59847;DHT22;45728;48.788;2.302;2023-09-12T00:53:30;21.60;99.90
59847;DHT22;45728;48.788;2.302;2023-09-12T00:55:58;21.50;99.90
59847;DHT22;45728;48.788;2.302;2023-09-12T00:58:25;21.50;99.90
59847;DHT22;45728;48.788;2.302;2023-09-12T01:00:52;21.50;99.90
59847;DHT22;45728;48.788;2.302;2023-09-12T01:03:18;21.40;99.90
59847;DHT22;45728;48.788;2.302;2023-09-12T01:05:46;21.40;99.90
59847;DHT22;45728;48.788;2.302;2023-09-12T01:08:12;21.40;99.90
59847;DHT22;45728;48.788;2.302;2023-09-12T01:10:38;21.40;99.90
59847;DHT22;45728;48.788;2.302;2023-09-12T01:13:04;21.30;99.90
59847;DHT22;45728;48.788;2.302;2023-09-12T01:15:31;21.20;99.90
59847;DHT22;45728;48.788;2.302;2023-09-12T01:17:57;21.30;99.90
59847;DHT22;45728;48.788;2.302;2023-09-12T01:20:30;21.20;99.90
59847;DHT22;45728;48.788;2.302;2023-09-12T01:23:33;21.10;99.90
59847;DHT22;45728;48.788;2.302;2023-09-12T01:28:45;21.10;99.90
59847;DHT22;45728;48.788;2.302;2023-09-12T01:31:13;21.20;99.90
59847;DHT22;45728;48.788;2.302;2023-09-12T01:33:40;21.20;99.90
59847;DHT22;45728;48.788;2.302;2023-09-12T01:36:09;21.20;99.90
59847;DHT22;45728;48.788;2.302;2023-09-12T01:38:35;21.30;99.90
59847;DHT22;45728;48.788;2.302;2023-09-12T01:41:02;21.20;99.90
59847;DHT22;45728;48.788;2.302;2023-09-12T01:43:29;21.30;99.90
59847;DHT22;45728;48.788;2.302;2023-09-12T01:45:59;21.30;99.90
59847;DHT22;45728;48.788;2.302;2023-09-12T01:48:35;21.20;99.90
59847;DHT22;45728;48.788;2.302;2023-09-12T01:51:02;21.20;99.90
59847;DHT22;45728;48.788;2.302;2023-09-12T01:53:29;21.20;99.90
59847;DHT22;45728;48.788;2.302;2023-09-12T01:55:57;21.10;99.90
59847;DHT22;45728;48.788;2.302;2023-09-12T01:58:25;21.00;99.90
59847;DHT22;45728;48.788;2.302;2023-09-12T02:00:52;21.00;99.90
59847;DHT22;45728;48.788;2.302;2023-09-12T02:03:18;21.00;99.90
59847;DHT22;45728;48.788;2.302;2023-09-12T02:05:44;21.00;99.90
59847;DHT22;45728;48.788;2.302;2023-09-12T02:08:10;20.90;99.90
59847;DHT22;45728;48.788;2.302;2023-09-12T02:10:36;20.90;99.90
59847;DHT22;45728;48.788;2.302;2023-09-12T02:13:02;20.80;99.90
59847;DHT22;45728;48.788;2.302;2023-09-12T02:15:28;20.70;99.90
59847;DHT22;45728;48.788;2.302;2023-09-12T02:17:54;20.70;99.90
59847;DHT22;45728;48.788;2.302;2023-09-12T02:20:20;20.60;99.90
59847;DHT22;45728;48.788;2.302;2023-09-12T02:22:47;20.60;99.90
59847;DHT22;45728;48.788;2.302;2023-09-12T02:25:13;20.70;99.90
59847;DHT22;45728;48.788;2.302;2023-09-12T02:27:39;20.60;99.90
59847;DHT22;45728;48.788;2.302;2023-09-12T02:30:05;20.60;99.90
59847;DHT22;45728;48.788;2.302;2023-09-12T02:32:31;20.70;99.90
59847;DHT22;45728;48.788;2.302;2023-09-12T02:34:57;20.70;99.90
59847;DHT22;45728;48.788;2.302;2023-09-12T02:37:24;20.70;99.90
59847;DHT22;45728;48.788;2.302;2023-09-12T02:39:50;20.70;99.90
59847;DHT22;45728;48.788;2.302;2023-09-12T02:42:16;20.70;99.90
59847;DHT22;45728;48.788;2.302;2023-09-12T02:44:42;20.70;99.90
59847;DHT22;45728;48.788;2.302;2023-09-12T02:47:08;20.70;99.90
59847;DHT22;45728;48.788;2.302;2023-09-12T02:49:34;20.80;99.90
59847;DHT22;45728;48.788;2.302;2023-09-12T02:52:00;20.80;99.90
59847;DHT22;45728;48.788;2.302;2023-09-12T02:54:26;20.80;99.90
59847;DHT22;45728;48.788;2.302;2023-09-12T02:56:52;20.80;99.90
59847;DHT22;45728;48.788;2.302;2023-09-12T02:59:18;20.90;99.90
59847;DHT22;45728;48.788;2.302;2023-09-12T03:01:45;20.90;99.90
59847;DHT22;45728;48.788;2.302;2023-09-12T03:04:11;20.90;99.90
59847;DHT22;45728;48.788;2.302;2023-09-12T03:06:37;20.90;99.90
59847;DHT22;45728;48.788;2.302;2023-09-12T03:09:03;20.80;99.90
59847;DHT22;45728;48.788;2.302;2023-09-12T03:11:30;20.80;99.90
59847;DHT22;45728;48.788;2.302;2023-09-12T03:13:56;20.80;99.90
59847;DHT22;45728;48.788;2.302;2023-09-12T03:16:22;20.80;99.90
59847;DHT22;45728;48.788;2.302;2023-09-12T03:18:50;20.80;99.90
59847;DHT22;45728;48.788;2.302;2023-09-12T03:21:16;20.80;99.90
59847;DHT22;45728;48.788;2.302;2023-09-12T03:23:42;20.60;99.90
59847;DHT22;45728;48.788;2.302;2023-09-12T03:26:09;20.60;99.90
59847;DHT22;45728;48.788;2.302;2023-09-12T03:28:35;20.60;99.90
59847;DHT22;45728;48.788;2.302;2023-09-12T03:31:08;20.60;99.90
59847;DHT22;45728;48.788;2.302;2023-09-12T03:33:37;20.60;99.90
59847;DHT22;45728;48.788;2.302;2023-09-12T03:36:05;20.60;99.90
59847;DHT22;45728;48.788;2.302;2023-09-12T03:38:31;20.60;99.90
59847;DHT22;45728;48.788;2.302;2023-09-12T03:40:57;20.70;99.90
59847;DHT22;45728;48.788;2.302;2023-09-12T03:43:23;20.60;99.90
59847;DHT22;45728;48.788;2.302;2023-09-12T03:45:49;20.60;99.90
59847;DHT22;45728;48.788;2.302;2023-09-12T03:48:15;20.60;99.90
59847;DHT22;45728;48.788;2.302;2023-09-12T03:50:41;20.50;99.90
59847;DHT22;45728;48.788;2.302;2023-09-12T03:53:08;20.60;99.90
59847;DHT22;45728;48.788;2.302;2023-09-12T03:55:34;20.50;99.90
59847;DHT22;45728;48.788;2.302;2023-09-12T03:58:00;20.40;99.90
59847;DHT22;45728;48.788;2.302;2023-09-12T04:00:26;20.50;99.90
59847;DHT22;45728;48.788;2.302;2023-09-12T04:02:52;20.50;99.90
59847;DHT22;45728;48.788;2.302;2023-09-12T04:05:18;20.40;99.90
59847;DHT22;45728;48.788;2.302;2023-09-12T04:07:44;20.40;99.90
59847;DHT22;45728;48.788;2.302;2023-09-12T04:10:10;20.40;99.90
59847;DHT22;45728;48.788;2.302;2023-09-12T04:12:36;20.40;99.90
59847;DHT22;45728;48.788;2.302;2023-09-12T04:15:02;20.40;99.90
59847;DHT22;45728;48.788;2.302;2023-09-12T04:17:29;20.40;99.90
59847;DHT22;45728;48.788;2.302;2023-09-12T04:19:55;20.20;99.90
59847;DHT22;45728;48.788;2.302;2023-09-12T04:22:21;20.30;99.90
59847;DHT22;45728;48.788;2.302;2023-09-12T04:24:47;20.30;99.90
59847;DHT22;45728;48.788;2.302;2023-09-12T04:27:13;20.30;99.90
59847;DHT22;45728;48.788;2.302;2023-09-12T04:29:39;20.20;99.90
59847;DHT22;45728;48.788;2.302;2023-09-12T04:32:05;20.20;99.90
59847;DHT22;45728;48.788;2.302;2023-09-12T04:34:31;20.20;99.90
59847;DHT22;45728;48.788;2.302;2023-09-12T04:36:57;20.20;99.90
59847;DHT22;45728;48.788;2.302;2023-09-12T04:39:24;20.10;99.90
59847;DHT22;45728;48.788;2.302;2023-09-12T04:41:50;20.20;99.90
59847;DHT22;45728;48.788;2.302;2023-09-12T04:44:16;20.10;99.90
59847;DHT22;45728;48.788;2.302;2023-09-12T04:46:42;20.20;99.90
59847;DHT22;45728;48.788;2.302;2023-09-12T04:49:08;20.20;99.90
59847;DHT22;45728;48.788;2.302;2023-09-12T04:51:34;20.10;99.90
59847;DHT22;45728;48.788;2.302;2023-09-12T04:54:00;20.10;99.90
59847;DHT22;45728;48.788;2.302;2023-09-12T04:56:27;20.10;99.90
59847;DHT22;45728;48.788;2.302;2023-09-12T04:58:53;20.00;99.90
59847;DHT22;45728;48.788;2.302;2023-09-12T05:01:19;20.00;99.90
59847;DHT22;45728;48.788;2.302;2023-09-12T05:03:45;19.90;99.90
59847;DHT22;45728;48.788;2.302;2023-09-12T05:06:12;20.00;99.90
59847;DHT22;45728;48.788;2.302;2023-09-12T05:08:39;20.00;99.90
59847;DHT22;45728;48.788;2.302;2023-09-12T05:11:05;20.00;99.90
59847;DHT22;45728;48.788;2.302;2023-09-12T05:13:31;20.00;99.90
59847;DHT22;45728;48.788;2.302;2023-09-12T05:15:57;20.00;99.90
59847;DHT22;45728;48.788;2.302;2023-09-12T05:18:23;19.80;99.90
59847;DHT22;45728;48.788;2.302;2023-09-12T05:20:49;19.90;99.90
59847;DHT22;45728;48.788;2.302;2023-09-12T05:23:15;19.90;99.90
59847;DHT22;45728;48.788;2.302;2023-09-12T05:25:41;19.90;99.90
59847;DHT22;45728;48.788;2.302;2023-09-12T05:28:07;19.90;99.90
59847;DHT22;45728;48.788;2.302;2023-09-12T05:30:33;19.90;99.90
59847;DHT22;45728;48.788;2.302;2023-09-12T05:33:01;19.90;99.90
59847;DHT22;45728;48.788;2.302;2023-09-12T05:35:27;20.00;99.90
59847;DHT22;45728;48.788;2.302;2023-09-12T05:37:53;20.00;99.90
59847;DHT22;45728;48.788;2.302;2023-09-12T05:40:19;20.00;99.90
59847;DHT22;45728;48.788;2.302;2023-09-12T05:42:45;20.00;99.90
59847;DHT22;45728;48.788;2.302;2023-09-12T05:45:11;20.10;99.90
59847;DHT22;45728;48.788;2.302;2023-09-12T05:47:37;20.00;99.90
59847;DHT22;45728;48.788;2.302;2023-09-12T05:50:05;19.90;99.90
59847;DHT22;45728;48.788;2.302;2023-09-12T05:52:35;19.90;99.90
59847;DHT22;45728;48.788;2.302;2023-09-12T05:55:01;19.90;99.90
59847;DHT22;45728;48.788;2.302;2023-09-12T05:57:27;20.00;99.90
59847;DHT22;45728;48.788;2.302;2023-09-12T05:59:53;20.10;99.90
59847;DHT22;45728;48.788;2.302;2023-09-12T06:02:19;20.00;99.90
59847;DHT22;45728;48.788;2.302;2023-09-12T06:04:45;20.00;99.90
59847;DHT22;45728;48.788;2.302;2023-09-12T06:07:12;20.10;99.90
59847;DHT22;45728;48.788;2.302;2023-09-12T06:09:38;20.10;99.90
59847;DHT22;45728;48.788;2.302;2023-09-12T06:12:04;20.20;99.90
59847;DHT22;45728;48.788;2.302;2023-09-12T06:14:31;20.30;99.90
59847;DHT22;45728;48.788;2.302;2023-09-12T06:16:57;20.20;99.90
59847;DHT22;45728;48.788;2.302;2023-09-12T06:19:23;20.20;99.90
59847;DHT22;45728;48.788;2.302;2023-09-12T06:21:49;20.10;99.90
59847;DHT22;45728;48.788;2.302;2023-09-12T06:24:19;20.10;99.90
59847;DHT22;45728;48.788;2.302;2023-09-12T06:26:47;20.00;99.90
59847;DHT22;45728;48.788;2.302;2023-09-12T06:29:14;19.90;99.90
59847;DHT22;45728;48.788;2.302;2023-09-12T06:31:40;19.90;99.90
59847;DHT22;45728;48.788;2.302;2023-09-12T06:34:10;20.00;99.90
59847;DHT22;45728;48.788;2.302;2023-09-12T06:36:36;20.10;99.90
59847;DHT22;45728;48.788;2.302;2023-09-12T06:39:02;20.00;99.90
59847;DHT22;45728;48.788;2.302;2023-09-12T06:41:30;19.90;99.90
59847;DHT22;45728;48.788;2.302;2023-09-12T06:43:57;20.00;99.90
59847;DHT22;45728;48.788;2.302;2023-09-12T06:46:26;20.00;99.90
59847;DHT22;45728;48.788;2.302;2023-09-12T06:48:52;19.90;99.90
59847;DHT22;45728;48.788;2.302;2023-09-12T06:51:18;19.90;99.90
59847;DHT22;45728;48.788;2.302;2023-09-12T06:53:49;20.00;99.90
59847;DHT22;45728;48.788;2.302;2023-09-12T06:56:15;20.00;99.90
59847;DHT22;45728;48.788;2.302;2023-09-12T06:58:41;20.00;99.90
59847;DHT22;45728;48.788;2.302;2023-09-12T07:01:07;20.10;99.90
59847;DHT22;45728;48.788;2.302;2023-09-12T07:03:34;20.10;99.90
59847;DHT22;45728;48.788;2.302;2023-09-12T07:06:01;20.20;99.90
59847;DHT22;45728;48.788;2.302;2023-09-12T07:08:32;20.20;99.90
59847;DHT22;45728;48.788;2.302;2023-09-12T07:10:59;20.20;99.90
59847;DHT22;45728;48.788;2.302;2023-09-12T07:13:32;20.20;99.90
59847;DHT22;45728;48.788;2.302;2023-09-12T07:15:58;20.30;99.90
59847;DHT22;45728;48.788;2.302;2023-09-12T07:18:24;20.30;99.90
59847;DHT22;45728;48.788;2.302;2023-09-12T07:20:58;20.20;99.90
59847;DHT22;45728;48.788;2.302;2023-09-12T07:23:24;20.20;99.90
59847;DHT22;45728;48.788;2.302;2023-09-12T07:25:50;20.20;99.90
59847;DHT22;45728;48.788;2.302;2023-09-12T07:28:16;20.10;99.90
59847;DHT22;45728;48.788;2.302;2023-09-12T07:30:46;20.20;99.90
59847;DHT22;45728;48.788;2.302;2023-09-12T07:33:12;20.20;99.90
59847;DHT22;45728;48.788;2.302;2023-09-12T07:35:38;20.30;99.90
59847;DHT22;45728;48.788;2.302;2023-09-12T07:38:05;20.40;99.90
59847;DHT22;45728;48.788;2.302;2023-09-12T07:40:31;20.30;99.90
59847;DHT22;45728;48.788;2.302;2023-09-12T07:42:57;20.10;99.90
59847;DHT22;45728;48.788;2.302;2023-09-12T07:45:23;20.10;99.90
59847;DHT22;45728;48.788;2.302;2023-09-12T07:47:49;20.00;99.90
59847;DHT22;45728;48.788;2.302;2023-09-12T07:50:16;20.10;99.90
59847;DHT22;45728;48.788;2.302;2023-09-12T07:52:42;20.00;99.90
59847;DHT22;45728;48.788;2.302;2023-09-12T07:55:08;20.00;99.90
59847;DHT22;45728;48.788;2.302;2023-09-12T07:57:35;19.90;99.90
59847;DHT22;45728;48.788;2.302;2023-09-12T08:00:03;20.00;99.90
59847;DHT22;45728;48.788;2.302;2023-09-12T08:02:30;20.20;99.90
59847;DHT22;45728;48.788;2.302;2023-09-12T08:04:57;20.10;99.90
59847;DHT22;45728;48.788;2.302;2023-09-12T08:07:23;20.00;99.90
59847;DHT22;45728;48.788;2.302;2023-09-12T08:09:54;20.10;99.90
59847;DHT22;45728;48.788;2.302;2023-09-12T08:12:21;20.10;99.90
59847;DHT22;45728;48.788;2.302;2023-09-12T08:14:48;20.10;99.90
59847;DHT22;45728;48.788;2.302;2023-09-12T08:17:14;20.00;99.90
59847;DHT22;45728;48.788;2.302;2023-09-12T08:19:41;20.00;99.90
59847;DHT22;45728;48.788;2.302;2023-09-12T08:22:09;20.10;99.90
59847;DHT22;45728;48.788;2.302;2023-09-12T08:24:36;20.20;99.90
59847;DHT22;45728;48.788;2.302;2023-09-12T08:27:03;20.20;99.90
59847;DHT22;45728;48.788;2.302;2023-09-12T08:29:29;20.20;99.90
59847;DHT22;45728;48.788;2.302;2023-09-12T08:31:57;20.20;99.90
59847;DHT22;45728;48.788;2.302;2023-09-12T08:34:23;20.20;99.90
59847;DHT22;45728;48.788;2.302;2023-09-12T08:36:49;20.10;99.90
59847;DHT22;45728;48.788;2.302;2023-09-12T08:39:17;20.30;99.90
59847;DHT22;45728;48.788;2.302;2023-09-12T08:41:43;20.40;99.90
59847;DHT22;45728;48.788;2.302;2023-09-12T08:44:12;20.50;99.90
59847;DHT22;45728;48.788;2.302;2023-09-12T08:46:41;20.60;99.90
59847;DHT22;45728;48.788;2.302;2023-09-12T08:49:08;20.50;99.90
59847;DHT22;45728;48.788;2.302;2023-09-12T08:51:37;20.30;99.90
59847;DHT22;45728;48.788;2.302;2023-09-12T08:54:03;20.20;99.90
59847;DHT22;45728;48.788;2.302;2023-09-12T08:56:31;20.30;99.90
59847;DHT22;45728;48.788;2.302;2023-09-12T08:59:00;20.30;99.90
59847;DHT22;45728;48.788;2.302;2023-09-12T09:01:29;20.40;99.90
59847;DHT22;45728;48.788;2.302;2023-09-12T09:03:56;20.50;99.90
59847;DHT22;45728;48.788;2.302;2023-09-12T09:06:23;20.50;99.90
59847;DHT22;45728;48.788;2.302;2023-09-12T09:08:50;20.50;99.90
59847;DHT22;45728;48.788;2.302;2023-09-12T09:11:19;20.50;99.90
59847;DHT22;45728;48.788;2.302;2023-09-12T09:13:45;20.40;99.90
59847;DHT22;45728;48.788;2.302;2023-09-12T09:21:23;20.30;99.90
59847;DHT22;45728;48.788;2.302;2023-09-12T09:23:52;20.40;99.90
59847;DHT22;45728;48.788;2.302;2023-09-12T09:26:19;20.30;99.90
59847;DHT22;45728;48.788;2.302;2023-09-12T09:28:46;20.30;99.90
59847;DHT22;45728;48.788;2.302;2023-09-12T09:31:26;20.40;99.90
59847;DHT22;45728;48.788;2.302;2023-09-12T09:33:52;20.40;99.90
59847;DHT22;45728;48.788;2.302;2023-09-12T09:36:20;20.50;99.90
59847;DHT22;45728;48.788;2.302;2023-09-12T09:38:46;20.60;99.90
59847;DHT22;45728;48.788;2.302;2023-09-12T09:41:12;20.70;99.90
59847;DHT22;45728;48.788;2.302;2023-09-12T09:43:38;20.80;99.90
59847;DHT22;45728;48.788;2.302;2023-09-12T09:46:04;20.90;99.90
59847;DHT22;45728;48.788;2.302;2023-09-12T09:48:30;20.90;99.90
59847;DHT22;45728;48.788;2.302;2023-09-12T09:51:01;20.80;99.90
59847;DHT22;45728;48.788;2.302;2023-09-12T09:53:29;20.80;99.90
59847;DHT22;45728;48.788;2.302;2023-09-12T09:56:16;20.70;99.90
59847;DHT22;45728;48.788;2.302;2023-09-12T09:58:53;20.60;99.90
59847;DHT22;45728;48.788;2.302;2023-09-12T10:01:29;20.50;99.90
59847;DHT22;45728;48.788;2.302;2023-09-12T10:04:00;20.50;99.90
59847;DHT22;45728;48.788;2.302;2023-09-12T10:06:27;20.30;99.90
59847;DHT22;45728;48.788;2.302;2023-09-12T10:08:55;20.30;99.90
59847;DHT22;45728;48.788;2.302;2023-09-12T10:11:24;20.30;99.90
59847;DHT22;45728;48.788;2.302;2023-09-12T10:13:55;20.10;99.90
59847;DHT22;45728;48.788;2.302;2023-09-12T10:16:30;20.10;99.90
59847;DHT22;45728;48.788;2.302;2023-09-12T10:21:34;20.10;99.90
59847;DHT22;45728;48.788;2.302;2023-09-12T10:24:03;20.10;99.90
59847;DHT22;45728;48.788;2.302;2023-09-12T10:26:31;20.00;99.90
59847;DHT22;45728;48.788;2.302;2023-09-12T10:29:00;20.10;99.90
59847;DHT22;45728;48.788;2.302;2023-09-12T10:31:29;19.80;99.90
59847;DHT22;45728;48.788;2.302;2023-09-12T10:33:57;19.60;99.90
59847;DHT22;45728;48.788;2.302;2023-09-12T10:36:26;19.30;99.90
59847;DHT22;45728;48.788;2.302;2023-09-12T10:38:52;19.30;99.90
59847;DHT22;45728;48.788;2.302;2023-09-12T10:41:19;19.40;99.90
59847;DHT22;45728;48.788;2.302;2023-09-12T10:43:47;19.40;99.90
59847;DHT22;45728;48.788;2.302;2023-09-12T10:46:16;19.30;99.90
59847;DHT22;45728;48.788;2.302;2023-09-12T10:48:42;19.30;99.90
59847;DHT22;45728;48.788;2.302;2023-09-12T10:51:10;19.40;99.90
59847;DHT22;45728;48.788;2.302;2023-09-12T10:53:38;19.30;99.90
59847;DHT22;45728;48.788;2.302;2023-09-12T10:56:14;19.20;99.90
59847;DHT22;45728;48.788;2.302;2023-09-12T11:01:34;19.00;99.90
59847;DHT22;45728;48.788;2.302;2023-09-12T11:06:45;19.10;99.90
59847;DHT22;45728;48.788;2.302;2023-09-12T11:09:15;19.20;99.90
59847;DHT22;45728;48.788;2.302;2023-09-12T11:11:43;19.20;99.90
59847;DHT22;45728;48.788;2.302;2023-09-12T11:14:10;19.10;99.90
59847;DHT22;45728;48.788;2.302;2023-09-12T11:16:36;19.10;99.90
59847;DHT22;45728;48.788;2.302;2023-09-12T11:19:19;19.00;99.90
59847;DHT22;45728;48.788;2.302;2023-09-12T11:21:47;19.00;99.90
59847;DHT22;45728;48.788;2.302;2023-09-12T11:24:14;19.10;99.90
59847;DHT22;45728;48.788;2.302;2023-09-12T11:27:02;19.10;99.90
59847;DHT22;45728;48.788;2.302;2023-09-12T11:29:38;19.20;99.90
59847;DHT22;45728;48.788;2.302;2023-09-12T11:32:05;19.10;99.90
59847;DHT22;45728;48.788;2.302;2023-09-12T11:34:41;19.10;99.90
59847;DHT22;45728;48.788;2.302;2023-09-12T11:37:08;19.00;99.90
59847;DHT22;45728;48.788;2.302;2023-09-12T11:39:35;19.00;99.90
59847;DHT22;45728;48.788;2.302;2023-09-12T11:42:03;19.00;99.90
59847;DHT22;45728;48.788;2.302;2023-09-12T11:44:30;19.00;99.90
59847;DHT22;45728;48.788;2.302;2023-09-12T11:46:59;19.00;99.90
59847;DHT22;45728;48.788;2.302;2023-09-12T11:49:38;19.00;99.90
59847;DHT22;45728;48.788;2.302;2023-09-12T11:52:15;19.00;99.90
59847;DHT22;45728;48.788;2.302;2023-09-12T11:54:45;19.00;99.90
59847;DHT22;45728;48.788;2.302;2023-09-12T11:57:15;19.00;99.90
59847;DHT22;45728;48.788;2.302;2023-09-12T11:59:42;19.10;99.90
59847;DHT22;45728;48.788;2.302;2023-09-12T12:02:13;19.20;99.90
59847;DHT22;45728;48.788;2.302;2023-09-12T12:04:39;19.20;99.90
59847;DHT22;45728;48.788;2.302;2023-09-12T12:07:06;19.40;99.90
59847;DHT22;45728;48.788;2.302;2023-09-12T12:09:34;19.60;99.90
59847;DHT22;45728;48.788;2.302;2023-09-12T12:12:08;19.80;99.90
59847;DHT22;45728;48.788;2.302;2023-09-12T12:14:34;19.90;99.90
59847;DHT22;45728;48.788;2.302;2023-09-12T12:17:08;20.00;99.90
59847;DHT22;45728;48.788;2.302;2023-09-12T12:19:35;20.00;99.90
59847;DHT22;45728;48.788;2.302;2023-09-12T12:22:04;20.10;99.90
59847;DHT22;45728;48.788;2.302;2023-09-12T12:24:39;20.10;99.90
59847;DHT22;45728;48.788;2.302;2023-09-12T12:27:06;20.20;99.90
59847;DHT22;45728;48.788;2.302;2023-09-12T12:29:34;20.40;99.90
59847;DHT22;45728;48.788;2.302;2023-09-12T12:32:01;20.40;99.90
59847;DHT22;45728;48.788;2.302;2023-09-12T12:34:28;20.50;99.90
59847;DHT22;45728;48.788;2.302;2023-09-12T12:36:55;20.70;99.90
59847;DHT22;45728;48.788;2.302;2023-09-12T12:39:21;20.60;99.90
59847;DHT22;45728;48.788;2.302;2023-09-12T12:41:51;20.20;99.90
59847;DHT22;45728;48.788;2.302;2023-09-12T12:44:17;20.20;99.90
59847;DHT22;45728;48.788;2.302;2023-09-12T12:46:53;20.40;99.90
59847;DHT22;45728;48.788;2.302;2023-09-12T12:49:20;20.60;99.90
59847;DHT22;45728;48.788;2.302;2023-09-12T12:51:47;20.60;99.90
59847;DHT22;45728;48.788;2.302;2023-09-12T12:54:14;20.60;99.90
59847;DHT22;45728;48.788;2.302;2023-09-12T12:56:42;20.60;99.90
59847;DHT22;45728;48.788;2.302;2023-09-12T12:59:08;20.60;99.90
59847;DHT22;45728;48.788;2.302;2023-09-12T13:01:37;20.60;99.90
59847;DHT22;45728;48.788;2.302;2023-09-12T13:04:09;20.60;99.90
59847;DHT22;45728;48.788;2.302;2023-09-12T13:06:36;20.60;99.90
59847;DHT22;45728;48.788;2.302;2023-09-12T13:09:05;20.60;99.90
59847;DHT22;45728;48.788;2.302;2023-09-12T13:11:32;20.60;99.90
59847;DHT22;45728;48.788;2.302;2023-09-12T13:14:02;20.30;99.90
59847;DHT22;45728;48.788;2.302;2023-09-12T13:16:29;20.20;99.90
59847;DHT22;45728;48.788;2.302;2023-09-12T13:18:55;20.20;99.90
59847;DHT22;45728;48.788;2.302;2023-09-12T13:21:21;20.40;99.90
59847;DHT22;45728;48.788;2.302;2023-09-12T13:23:48;20.40;99.90
59847;DHT22;45728;48.788;2.302;2023-09-12T13:26:14;20.60;99.90
59847;DHT22;45728;48.788;2.302;2023-09-12T13:28:40;20.80;99.90
59847;DHT22;45728;48.788;2.302;2023-09-12T13:31:06;21.00;99.90
59847;DHT22;45728;48.788;2.302;2023-09-12T13:33:33;21.10;99.90
59847;DHT22;45728;48.788;2.302;2023-09-12T13:35:59;21.10;99.90
59847;DHT22;45728;48.788;2.302;2023-09-12T13:38:25;21.10;99.90
59847;DHT22;45728;48.788;2.302;2023-09-12T13:40:52;21.10;99.90
59847;DHT22;45728;48.788;2.302;2023-09-12T13:43:18;20.90;99.90
59847;DHT22;45728;48.788;2.302;2023-09-12T13:45:44;20.90;99.90
59847;DHT22;45728;48.788;2.302;2023-09-12T13:48:10;21.00;99.90
59847;DHT22;45728;48.788;2.302;2023-09-12T13:50:38;21.10;99.90
59847;DHT22;45728;48.788;2.302;2023-09-12T13:53:04;21.10;99.90
59847;DHT22;45728;48.788;2.302;2023-09-12T13:55:35;21.10;99.90
59847;DHT22;45728;48.788;2.302;2023-09-12T13:58:03;21.10;99.90
59847;DHT22;45728;48.788;2.302;2023-09-12T14:03:36;20.80;99.90
59847;DHT22;45728;48.788;2.302;2023-09-12T14:06:02;20.70;99.90
59847;DHT22;45728;48.788;2.302;2023-09-12T14:08:28;20.80;99.90
59847;DHT22;45728;48.788;2.302;2023-09-12T14:10:54;20.70;99.90
59847;DHT22;45728;48.788;2.302;2023-09-12T14:13:20;20.70;99.90
59847;DHT22;45728;48.788;2.302;2023-09-12T14:15:46;20.80;99.90
59847;DHT22;45728;48.788;2.302;2023-09-12T14:18:13;20.80;99.90
59847;DHT22;45728;48.788;2.302;2023-09-12T14:20:39;20.90;99.90
59847;DHT22;45728;48.788;2.302;2023-09-12T14:23:05;21.00;99.90
59847;DHT22;45728;48.788;2.302;2023-09-12T14:25:31;21.00;99.90
59847;DHT22;45728;48.788;2.302;2023-09-12T14:27:57;21.00;99.90
59847;DHT22;45728;48.788;2.302;2023-09-12T14:30:23;21.10;99.90
59847;DHT22;45728;48.788;2.302;2023-09-12T14:32:52;21.10;99.90
59847;DHT22;45728;48.788;2.302;2023-09-12T14:35:18;21.00;99.90
59847;DHT22;45728;48.788;2.302;2023-09-12T14:37:44;20.80;99.90
59847;DHT22;45728;48.788;2.302;2023-09-12T14:40:10;20.60;99.90
59847;DHT22;45728;48.788;2.302;2023-09-12T14:42:39;20.60;99.90
59847;DHT22;45728;48.788;2.302;2023-09-12T14:45:06;20.60;99.90
59847;DHT22;45728;48.788;2.302;2023-09-12T14:47:32;20.70;99.90
59847;DHT22;45728;48.788;2.302;2023-09-12T14:49:58;20.80;99.90
59847;DHT22;45728;48.788;2.302;2023-09-12T14:52:24;20.90;99.90
59847;DHT22;45728;48.788;2.302;2023-09-12T14:54:53;21.00;99.90
59847;DHT22;45728;48.788;2.302;2023-09-12T14:57:19;21.10;99.90
59847;DHT22;45728;48.788;2.302;2023-09-12T14:59:46;20.90;99.90
59847;DHT22;45728;48.788;2.302;2023-09-12T15:02:12;20.80;99.90
59847;DHT22;45728;48.788;2.302;2023-09-12T15:04:38;20.60;99.90
59847;DHT22;45728;48.788;2.302;2023-09-12T15:07:04;20.50;99.90
59847;DHT22;45728;48.788;2.302;2023-09-12T15:09:30;20.50;99.90
59847;DHT22;45728;48.788;2.302;2023-09-12T15:11:56;20.50;99.90
59847;DHT22;45728;48.788;2.302;2023-09-12T15:14:22;20.50;99.90
59847;DHT22;45728;48.788;2.302;2023-09-12T15:16:48;20.60;99.90
59847;DHT22;45728;48.788;2.302;2023-09-12T15:19:14;20.70;99.90
59847;DHT22;45728;48.788;2.302;2023-09-12T15:21:40;20.70;99.90
59847;DHT22;45728;48.788;2.302;2023-09-12T15:24:07;20.60;99.90
59847;DHT22;45728;48.788;2.302;2023-09-12T15:26:33;20.60;99.90
59847;DHT22;45728;48.788;2.302;2023-09-12T15:28:59;20.50;99.90
59847;DHT22;45728;48.788;2.302;2023-09-12T15:31:27;20.50;99.90
59847;DHT22;45728;48.788;2.302;2023-09-12T15:33:53;20.50;99.90
59847;DHT22;45728;48.788;2.302;2023-09-12T15:36:22;20.40;99.90
59847;DHT22;45728;48.788;2.302;2023-09-12T15:38:48;20.40;99.90
59847;DHT22;45728;48.788;2.302;2023-09-12T15:41:14;20.50;99.90
59847;DHT22;45728;48.788;2.302;2023-09-12T15:43:41;20.40;99.90
59847;DHT22;45728;48.788;2.302;2023-09-12T15:46:07;20.40;99.90
59847;DHT22;45728;48.788;2.302;2023-09-12T15:48:33;20.40;99.90
59847;DHT22;45728;48.788;2.302;2023-09-12T15:51:18;20.40;99.90